sensor_id;sensor_type;location;lat;lon;timestamp;pressure;altitude;pressure_sealevel;temperature;humidity
47104;BME280;32853;52.164;5.400;2024-01-30T00:00:05;102499.28;;;10.42;100.00
47104;BME280;32853;52.164;5.400;2024-01-30T00:02:43;102447.47;;;9.97;100.00
47104;BME280;32853;52.164;5.400;2024-01-30T00:05:09;102502.88;;;10.34;100.00
47104;BME280;32853;52.164;5.400;2024-01-30T00:07:38;102494.19;;;10.32;100.00
47104;BME280;32853;52.164;5.400;2024-01-30T00:10:07;102199.38;;;8.41;100.00
47104;BME280;32853;52.164;5.400;2024-01-30T00:12:34;102501.91;;;10.39;100.00
47104;BME280;32853;52.164;5.400;2024-01-30T00:15:00;102511.53;;;10.37;100.00
47104;BME280;32853;52.164;5.400;2024-01-30T00:17:26;102515.09;;;10.32;100.00
47104;BME280;32853;52.164;5.400;2024-01-30T00:19:52;102499.47;;;10.26;100.00
47104;BME280;32853;52.164;5.400;2024-01-30T00:22:23;102538.66;;;10.27;100.00
47104;BME280;32853;52.164;5.400;2024-01-30T00:24:49;102465.88;;;9.89;100.00
47104;BME280;32853;52.164;5.400;2024-01-30T00:27:14;102397.34;;;9.64;100.00
47104;BME280;32853;52.164;5.400;2024-01-30T00:29:40;102395.66;;;9.58;100.00
47104;BME280;32853;52.164;5.400;2024-01-30T00:32:07;102334.28;;;9.19;100.00
47104;BME280;32853;52.164;5.400;2024-01-30T00:34:33;102506.50;;;10.22;100.00
47104;BME280;32853;52.164;5.400;2024-01-30T00:36:59;102189.91;;;8.30;100.00
47104;BME280;32853;52.164;5.400;2024-01-30T00:39:24;102316.13;;;9.07;100.00
47104;BME280;32853;52.164;5.400;2024-01-30T00:41:52;102508.28;;;10.14;100.00
47104;BME280;32853;52.164;5.400;2024-01-30T00:44:18;102362.78;;;9.41;100.00
47104;BME280;32853;52.164;5.400;2024-01-30T00:46:50;102387.91;;;9.54;100.00
47104;BME280;32853;52.164;5.400;2024-01-30T00:49:19;102237.50;;;8.56;100.00
47104;BME280;32853;52.164;5.400;2024-01-30T00:51:49;102500.47;;;10.12;100.00
47104;BME280;32853;52.164;5.400;2024-01-30T00:54:15;102152.72;;;8.11;100.00
47104;BME280;32853;52.164;5.400;2024-01-30T00:56:48;102470.19;;;9.93;100.00
47104;BME280;32853;52.164;5.400;2024-01-30T00:59:14;102344.72;;;9.22;100.00
47104;BME280;32853;52.164;5.400;2024-01-30T01:01:48;102496.22;;;10.04;100.00
47104;BME280;32853;52.164;5.400;2024-01-30T01:04:19;102318.97;;;8.87;100.00
47104;BME280;32853;52.164;5.400;2024-01-30T01:06:54;102327.59;;;8.91;100.00
47104;BME280;32853;52.164;5.400;2024-01-30T01:09:30;102296.34;;;8.88;100.00
47104;BME280;32853;52.164;5.400;2024-01-30T01:11:56;102383.81;;;9.25;100.00
47104;BME280;32853;52.164;5.400;2024-01-30T01:14:39;102489.38;;;9.92;100.00
47104;BME280;32853;52.164;5.400;2024-01-30T01:17:04;102481.53;;;9.92;100.00
47104;BME280;32853;52.164;5.400;2024-01-30T01:19:30;102301.63;;;8.79;100.00
47104;BME280;32853;52.164;5.400;2024-01-30T01:21:55;102423.78;;;9.35;100.00
47104;BME280;32853;52.164;5.400;2024-01-30T01:24:21;102356.84;;;9.25;100.00
47104;BME280;32853;52.164;5.400;2024-01-30T01:26:47;102289.50;;;8.76;100.00
47104;BME280;32853;52.164;5.400;2024-01-30T01:29:12;102452.88;;;9.83;100.00
47104;BME280;32853;52.164;5.400;2024-01-30T01:31:38;102452.06;;;9.78;100.00
47104;BME280;32853;52.164;5.400;2024-01-30T01:34:15;102264.41;;;8.61;100.00
47104;BME280;32853;52.164;5.400;2024-01-30T01:36:43;102485.19;;;9.76;100.00
47104;BME280;32853;52.164;5.400;2024-01-30T01:39:09;102485.19;;;9.76;100.00
47104;BME280;32853;52.164;5.400;2024-01-30T01:41:41;102458.13;;;9.80;100.00
47104;BME280;32853;52.164;5.400;2024-01-30T01:44:07;102318.91;;;8.92;100.00
47104;BME280;32853;52.164;5.400;2024-01-30T01:46:33;102467.72;;;9.81;100.00
47104;BME280;32853;52.164;5.400;2024-01-30T01:49:01;102303.41;;;8.77;100.00
47104;BME280;32853;52.164;5.400;2024-01-30T01:51:33;102351.81;;;9.10;100.00
47104;BME280;32853;52.164;5.400;2024-01-30T01:54:03;102459.91;;;9.75;100.00
47104;BME280;32853;52.164;5.400;2024-01-30T01:56:29;102165.91;;;7.91;100.00
47104;BME280;32853;52.164;5.400;2024-01-30T01:59:03;102363.91;;;9.15;100.00
47104;BME280;32853;52.164;5.400;2024-01-30T02:01:32;102335.38;;;8.98;100.00
47104;BME280;32853;52.164;5.400;2024-01-30T02:04:00;102159.81;;;7.94;100.00
47104;BME280;32853;52.164;5.400;2024-01-30T02:06:27;102270.53;;;8.53;100.00
47104;BME280;32853;52.164;5.400;2024-01-30T02:08:54;102241.22;;;8.20;100.00
47104;BME280;32853;52.164;5.400;2024-01-30T02:11:35;102395.91;;;9.36;100.00
47104;BME280;32853;52.164;5.400;2024-01-30T02:14:11;102270.56;;;8.51;100.00
47104;BME280;32853;52.164;5.400;2024-01-30T02:16:54;102283.38;;;8.76;100.00
47104;BME280;32853;52.164;5.400;2024-01-30T02:19:35;102445.25;;;9.65;100.00
47104;BME280;32853;52.164;5.400;2024-01-30T02:22:01;102415.13;;;9.28;100.00
47104;BME280;32853;52.164;5.400;2024-01-30T02:24:31;102465.31;;;9.59;100.00
47104;BME280;32853;52.164;5.400;2024-01-30T02:26:59;102259.31;;;8.46;100.00
47104;BME280;32853;52.164;5.400;2024-01-30T02:29:36;102348.44;;;8.95;100.00
47104;BME280;32853;52.164;5.400;2024-01-30T02:32:05;102459.25;;;9.56;100.00
47104;BME280;32853;52.164;5.400;2024-01-30T02:34:56;102467.03;;;9.60;100.00
47104;BME280;32853;52.164;5.400;2024-01-30T02:37:21;102443.78;;;9.35;100.00
47104;BME280;32853;52.164;5.400;2024-01-30T02:39:47;102288.03;;;8.43;100.00
47104;BME280;32853;52.164;5.400;2024-01-30T02:42:12;102484.50;;;9.57;100.00
47104;BME280;32853;52.164;5.400;2024-01-30T02:44:37;102485.41;;;9.51;100.00
47104;BME280;32853;52.164;5.400;2024-01-30T02:47:03;102165.97;;;7.82;100.00
47104;BME280;32853;52.164;5.400;2024-01-30T02:49:50;102448.84;;;9.54;100.00
47104;BME280;32853;52.164;5.400;2024-01-30T02:52:20;102444.53;;;9.49;100.00
47104;BME280;32853;52.164;5.400;2024-01-30T02:54:47;102425.34;;;9.50;100.00
47104;BME280;32853;52.164;5.400;2024-01-30T02:57:13;102086.34;;;7.55;100.00
47104;BME280;32853;52.164;5.400;2024-01-30T02:59:38;102213.34;;;8.30;100.00
47104;BME280;32853;52.164;5.400;2024-01-30T03:02:04;102438.38;;;9.53;100.00
47104;BME280;32853;52.164;5.400;2024-01-30T03:04:29;102434.03;;;9.53;100.00
47104;BME280;32853;52.164;5.400;2024-01-30T03:06:55;102121.75;;;7.74;100.00
47104;BME280;32853;52.164;5.400;2024-01-30T03:09:21;102210.75;;;8.30;100.00
47104;BME280;32853;52.164;5.400;2024-01-30T03:11:46;102294.72;;;8.76;100.00
47104;BME280;32853;52.164;5.400;2024-01-30T03:14:12;102225.56;;;8.26;100.00
47104;BME280;32853;52.164;5.400;2024-01-30T03:16:37;102427.94;;;9.51;100.00
47104;BME280;32853;52.164;5.400;2024-01-30T03:19:04;102408.78;;;9.52;100.00
47104;BME280;32853;52.164;5.400;2024-01-30T03:21:36;102224.59;;;8.42;100.00
47104;BME280;32853;52.164;5.400;2024-01-30T03:24:02;102324.84;;;9.09;100.00
47104;BME280;32853;52.164;5.400;2024-01-30T03:26:30;102314.44;;;9.05;100.00
47104;BME280;32853;52.164;5.400;2024-01-30T03:28:55;102401.78;;;9.57;100.00
47104;BME280;32853;52.164;5.400;2024-01-30T03:31:20;102438.31;;;9.59;100.00
47104;BME280;32853;52.164;5.400;2024-01-30T03:33:46;102215.88;;;8.42;100.00
47104;BME280;32853;52.164;5.400;2024-01-30T03:36:11;102224.56;;;8.46;100.00
47104;BME280;32853;52.164;5.400;2024-01-30T03:38:37;102209.78;;;8.46;100.00
47104;BME280;32853;52.164;5.400;2024-01-30T03:41:02;102420.81;;;9.69;100.00
47104;BME280;32853;52.164;5.400;2024-01-30T03:43:28;102237.47;;;8.59;100.00
47104;BME280;32853;52.164;5.400;2024-01-30T03:45:53;102414.84;;;9.57;100.00
47104;BME280;32853;52.164;5.400;2024-01-30T03:48:20;102296.09;;;9.11;100.00
47104;BME280;32853;52.164;5.400;2024-01-30T03:50:46;102201.03;;;8.55;100.00
47104;BME280;32853;52.164;5.400;2024-01-30T03:53:11;102247.63;;;8.85;100.00
47104;BME280;32853;52.164;5.400;2024-01-30T03:56:02;102382.66;;;9.55;100.00
47104;BME280;32853;52.164;5.400;2024-01-30T03:58:28;102394.78;;;9.59;100.00
47104;BME280;32853;52.164;5.400;2024-01-30T04:00:53;102175.97;;;8.38;100.00
47104;BME280;32853;52.164;5.400;2024-01-30T04:03:18;102283.19;;;8.98;100.00
47104;BME280;32853;52.164;5.400;2024-01-30T04:05:45;102284.00;;;9.02;100.00
47104;BME280;32853;52.164;5.400;2024-01-30T04:08:12;102186.25;;;8.52;100.00
47104;BME280;32853;52.164;5.400;2024-01-30T04:10:46;102183.63;;;8.52;100.00
47104;BME280;32853;52.164;5.400;2024-01-30T04:13:11;102295.22;;;9.12;100.00
47104;BME280;32853;52.164;5.400;2024-01-30T04:15:37;102412.88;;;9.78;100.00
47104;BME280;32853;52.164;5.400;2024-01-30T04:18:03;102182.88;;;8.41;100.00
47104;BME280;32853;52.164;5.400;2024-01-30T04:20:33;102298.81;;;9.01;100.00
47104;BME280;32853;52.164;5.400;2024-01-30T04:22:59;102315.94;;;9.25;100.00
47104;BME280;32853;52.164;5.400;2024-01-30T04:25:28;102403.31;;;9.74;100.00
47104;BME280;32853;52.164;5.400;2024-01-30T04:27:53;102191.53;;;8.46;100.00
47104;BME280;32853;52.164;5.400;2024-01-30T04:30:19;102202.66;;;8.62;100.00
47104;BME280;32853;52.164;5.400;2024-01-30T04:32:50;102341.91;;;9.38;100.00
47104;BME280;32853;52.164;5.400;2024-01-30T04:35:16;102375.47;;;9.73;100.00
47104;BME280;32853;52.164;5.400;2024-01-30T04:37:49;102069.50;;;7.94;100.00
47104;BME280;32853;52.164;5.400;2024-01-30T04:40:15;102375.38;;;9.82;100.00
47104;BME280;32853;52.164;5.400;2024-01-30T04:42:40;102401.53;;;9.80;100.00
47104;BME280;32853;52.164;5.400;2024-01-30T04:45:06;102395.41;;;9.81;100.00
47104;BME280;32853;52.164;5.400;2024-01-30T04:47:32;102062.38;;;8.13;100.00
47104;BME280;32853;52.164;5.400;2024-01-30T04:49:59;102352.72;;;9.82;100.00
47104;BME280;32853;52.164;5.400;2024-01-30T04:52:25;102180.75;;;8.81;100.00
47104;BME280;32853;52.164;5.400;2024-01-30T04:54:52;102058.97;;;8.06;100.00
47104;BME280;32853;52.164;5.400;2024-01-30T04:57:22;102327.78;;;9.57;100.00
47104;BME280;32853;52.164;5.400;2024-01-30T04:59:47;102286.22;;;9.37;100.00
47104;BME280;32853;52.164;5.400;2024-01-30T05:02:19;102154.09;;;8.55;100.00
47104;BME280;32853;52.164;5.400;2024-01-30T05:04:46;102372.69;;;9.86;100.00
47104;BME280;32853;52.164;5.400;2024-01-30T05:07:12;102387.41;;;9.95;100.00
47104;BME280;32853;52.164;5.400;2024-01-30T05:09:37;102375.25;;;9.93;100.00
47104;BME280;32853;52.164;5.400;2024-01-30T05:12:16;102344.09;;;9.77;100.00
47104;BME280;32853;52.164;5.400;2024-01-30T05:14:42;102066.56;;;8.26;100.00
47104;BME280;32853;52.164;5.400;2024-01-30T05:17:07;102242.03;;;9.22;100.00
47104;BME280;32853;52.164;5.400;2024-01-30T05:19:37;102280.97;;;9.40;100.00
47104;BME280;32853;52.164;5.400;2024-01-30T05:22:03;102198.03;;;8.91;100.00
47104;BME280;32853;52.164;5.400;2024-01-30T05:24:41;102308.44;;;9.72;100.00
47104;BME280;32853;52.164;5.400;2024-01-30T05:27:10;102316.38;;;9.66;100.00
47104;BME280;32853;52.164;5.400;2024-01-30T05:29:47;102357.59;;;10.10;100.00
47104;BME280;32853;52.164;5.400;2024-01-30T05:32:12;102258.31;;;9.44;100.00
47104;BME280;32853;52.164;5.400;2024-01-30T05:34:49;102195.78;;;9.30;100.00
47104;BME280;32853;52.164;5.400;2024-01-30T05:37:16;102041.22;;;8.42;100.00
47104;BME280;32853;52.164;5.400;2024-01-30T05:39:44;102280.38;;;9.86;100.00
47104;BME280;32853;52.164;5.400;2024-01-30T05:42:12;102154.31;;;9.09;100.00
47104;BME280;32853;52.164;5.400;2024-01-30T05:44:38;102195.09;;;9.17;100.00
47104;BME280;32853;52.164;5.400;2024-01-30T05:47:03;102383.56;;;10.25;100.00
47104;BME280;32853;52.164;5.400;2024-01-30T05:49:49;102354.72;;;10.30;100.00
47104;BME280;32853;52.164;5.400;2024-01-30T05:52:18;102351.09;;;10.38;100.00
47104;BME280;32853;52.164;5.400;2024-01-30T05:54:50;102357.19;;;10.39;100.00
47104;BME280;32853;52.164;5.400;2024-01-30T05:57:21;102353.72;;;10.38;100.00
47104;BME280;32853;52.164;5.400;2024-01-30T05:59:47;102399.94;;;10.38;100.00
47104;BME280;32853;52.164;5.400;2024-01-30T06:02:14;102038.56;;;8.48;100.00
47104;BME280;32853;52.164;5.400;2024-01-30T06:04:39;102372.94;;;10.36;100.00
47104;BME280;32853;52.164;5.400;2024-01-30T06:07:14;102309.63;;;10.12;100.00
47104;BME280;32853;52.164;5.400;2024-01-30T06:09:54;102352.66;;;10.53;100.00
47104;BME280;32853;52.164;5.400;2024-01-30T06:12:20;102363.91;;;10.57;100.00
47104;BME280;32853;52.164;5.400;2024-01-30T06:14:45;102354.38;;;10.54;100.00
47104;BME280;32853;52.164;5.400;2024-01-30T06:17:10;102377.88;;;10.57;100.00
47104;BME280;32853;52.164;5.400;2024-01-30T06:19:40;102328.38;;;10.43;100.00
47104;BME280;32853;52.164;5.400;2024-01-30T06:22:05;102174.50;;;9.60;100.00
47104;BME280;32853;52.164;5.400;2024-01-30T06:24:34;102374.94;;;10.77;100.00
47104;BME280;32853;52.164;5.400;2024-01-30T06:27:02;102175.28;;;9.67;100.00
47104;BME280;32853;52.164;5.400;2024-01-30T06:29:31;102353.03;;;10.83;100.00
47104;BME280;32853;52.164;5.400;2024-01-30T06:32:06;102360.03;;;10.81;100.00
47104;BME280;32853;52.164;5.400;2024-01-30T06:34:31;102214.25;;;9.81;100.00
47104;BME280;32853;52.164;5.400;2024-01-30T06:36:56;102257.25;;;10.20;100.00
47104;BME280;32853;52.164;5.400;2024-01-30T06:39:22;102180.44;;;9.72;100.00
47104;BME280;32853;52.164;5.400;2024-01-30T06:41:52;102272.75;;;10.34;100.00
47104;BME280;32853;52.164;5.400;2024-01-30T06:44:21;102076.78;;;9.17;100.00
47104;BME280;32853;52.164;5.400;2024-01-30T06:46:49;102392.03;;;10.99;100.00
47104;BME280;32853;52.164;5.400;2024-01-30T06:49:15;102287.66;;;10.27;100.00
47104;BME280;32853;52.164;5.400;2024-01-30T06:51:40;102329.19;;;10.47;100.00
47104;BME280;32853;52.164;5.400;2024-01-30T06:54:09;102385.34;;;10.80;100.00
47104;BME280;32853;52.164;5.400;2024-01-30T06:56:43;102231.44;;;9.97;100.00
47104;BME280;32853;52.164;5.400;2024-01-30T06:59:08;102413.13;;;10.89;100.00
47104;BME280;32853;52.164;5.400;2024-01-30T07:01:34;102184.56;;;9.85;100.00
47104;BME280;32853;52.164;5.400;2024-01-30T07:04:02;102377.34;;;10.89;100.00
47104;BME280;32853;52.164;5.400;2024-01-30T07:06:30;102192.38;;;9.89;100.00
47104;BME280;32853;52.164;5.400;2024-01-30T07:08:55;102381.59;;;10.98;100.00
47104;BME280;32853;52.164;5.400;2024-01-30T07:11:24;102384.25;;;10.93;100.00
47104;BME280;32853;52.164;5.400;2024-01-30T07:13:54;102087.03;;;9.29;100.00
47104;BME280;32853;52.164;5.400;2024-01-30T07:16:33;102363.03;;;11.10;100.00
47104;BME280;32853;52.164;5.400;2024-01-30T07:19:09;102325.13;;;10.82;100.00
47104;BME280;32853;52.164;5.400;2024-01-30T07:21:34;102379.59;;;11.12;100.00
47104;BME280;32853;52.164;5.400;2024-01-30T07:24:00;102326.78;;;10.86;100.00
47104;BME280;32853;52.164;5.400;2024-01-30T07:26:28;102379.72;;;11.04;100.00
47104;BME280;32853;52.164;5.400;2024-01-30T07:28:57;102288.41;;;10.35;100.00
47104;BME280;32853;52.164;5.400;2024-01-30T07:31:22;102399.06;;;10.94;100.00
47104;BME280;32853;52.164;5.400;2024-01-30T07:33:48;102085.44;;;9.22;100.00
47104;BME280;32853;52.164;5.400;2024-01-30T07:36:14;102413.81;;;11.00;100.00
47104;BME280;32853;52.164;5.400;2024-01-30T07:38:39;102284.81;;;10.41;100.00
47104;BME280;32853;52.164;5.400;2024-01-30T07:41:06;102391.88;;;11.09;100.00
47104;BME280;32853;52.164;5.400;2024-01-30T07:43:36;102159.00;;;9.48;100.00
47104;BME280;32853;52.164;5.400;2024-01-30T07:46:11;102402.53;;;10.98;100.00
47104;BME280;32853;52.164;5.400;2024-01-30T07:48:36;102341.88;;;10.71;100.00
47104;BME280;32853;52.164;5.400;2024-01-30T07:51:01;102393.66;;;11.05;100.00
47104;BME280;32853;52.164;5.400;2024-01-30T07:53:35;102407.31;;;11.24;100.00
47104;BME280;32853;52.164;5.400;2024-01-30T07:56:05;102412.50;;;11.25;100.00
47104;BME280;32853;52.164;5.400;2024-01-30T07:58:31;102337.44;;;10.76;100.00
47104;BME280;32853;52.164;5.400;2024-01-30T08:01:02;102421.13;;;11.30;100.00
47104;BME280;32853;52.164;5.400;2024-01-30T08:03:31;102415.91;;;11.32;100.00
47104;BME280;32853;52.164;5.400;2024-01-30T08:05:58;102404.78;;;11.18;100.00
47104;BME280;32853;52.164;5.400;2024-01-30T08:08:24;102415.06;;;11.28;100.00
47104;BME280;32853;52.164;5.400;2024-01-30T08:10:51;102416.56;;;11.42;100.00
47104;BME280;32853;52.164;5.400;2024-01-30T08:13:17;102292.72;;;10.38;100.00
47104;BME280;32853;52.164;5.400;2024-01-30T08:15:42;102325.09;;;10.83;100.00
47104;BME280;32853;52.164;5.400;2024-01-30T08:18:11;102429.63;;;11.45;100.00
47104;BME280;32853;52.164;5.400;2024-01-30T08:20:36;102332.63;;;11.03;100.00
47104;BME280;32853;52.164;5.400;2024-01-30T08:23:02;102425.06;;;11.56;100.00
47104;BME280;32853;52.164;5.400;2024-01-30T08:25:32;102320.69;;;10.85;100.00
47104;BME280;32853;52.164;5.400;2024-01-30T08:27:58;102360.03;;;11.30;100.00
47104;BME280;32853;52.164;5.400;2024-01-30T08:30:51;102432.50;;;11.79;100.00
47104;BME280;32853;52.164;5.400;2024-01-30T08:33:18;102324.47;;;11.20;100.00
47104;BME280;32853;52.164;5.400;2024-01-30T08:35:49;102420.25;;;11.81;100.00
47104;BME280;32853;52.164;5.400;2024-01-30T08:38:16;102424.53;;;11.86;100.00
47104;BME280;32853;52.164;5.400;2024-01-30T08:40:55;102331.91;;;11.40;100.00
47104;BME280;32853;52.164;5.400;2024-01-30T08:43:21;102247.34;;;10.90;100.00
47104;BME280;32853;52.164;5.400;2024-01-30T08:45:46;102322.91;;;11.54;100.00
47104;BME280;32853;52.164;5.400;2024-01-30T08:48:12;102425.75;;;12.12;100.00
47104;BME280;32853;52.164;5.400;2024-01-30T08:50:42;102270.19;;;11.26;100.00
47104;BME280;32853;52.164;5.400;2024-01-30T08:53:08;102434.09;;;12.29;100.00
47104;BME280;32853;52.164;5.400;2024-01-30T08:55:33;102418.16;;;12.38;100.00
47104;BME280;32853;52.164;5.400;2024-01-30T08:58:00;102181.69;;;11.00;100.00
47104;BME280;32853;52.164;5.400;2024-01-30T09:00:25;102440.75;;;12.45;100.00
47104;BME280;32853;52.164;5.400;2024-01-30T09:02:50;102370.34;;;12.26;100.00
47104;BME280;32853;52.164;5.400;2024-01-30T09:05:17;102387.09;;;12.20;100.00
47104;BME280;32853;52.164;5.400;2024-01-30T09:07:42;102330.16;;;11.86;100.00
47104;BME280;32853;52.164;5.400;2024-01-30T09:10:11;102443.97;;;12.58;100.00
47104;BME280;32853;52.164;5.400;2024-01-30T09:12:36;102416.97;;;12.53;100.00
47104;BME280;32853;52.164;5.400;2024-01-30T09:15:02;102452.34;;;12.74;100.00
47104;BME280;32853;52.164;5.400;2024-01-30T09:17:31;102427.03;;;12.71;100.00
47104;BME280;32853;52.164;5.400;2024-01-30T09:19:59;102348.34;;;12.33;100.00
47104;BME280;32853;52.164;5.400;2024-01-30T09:22:26;102145.81;;;11.05;100.00
47104;BME280;32853;52.164;5.400;2024-01-30T09:24:51;102118.25;;;10.89;100.00
47104;BME280;32853;52.164;5.400;2024-01-30T09:27:17;102449.59;;;12.80;100.00
47104;BME280;32853;52.164;5.400;2024-01-30T09:30:01;102375.97;;;12.47;100.00
47104;BME280;32853;52.164;5.400;2024-01-30T09:32:34;102362.31;;;12.33;100.00
47104;BME280;32853;52.164;5.400;2024-01-30T09:34:59;102267.16;;;11.89;100.00
47104;BME280;32853;52.164;5.400;2024-01-30T09:37:25;102286.44;;;11.87;100.00
47104;BME280;32853;52.164;5.400;2024-01-30T09:39:50;102360.59;;;12.32;100.00
47104;BME280;32853;52.164;5.400;2024-01-30T09:42:35;102455.53;;;12.88;100.00
47104;BME280;32853;52.164;5.400;2024-01-30T09:45:04;102471.38;;;12.84;100.00
47104;BME280;32853;52.164;5.400;2024-01-30T09:47:55;102462.59;;;12.85;100.00
47104;BME280;32853;52.164;5.400;2024-01-30T09:50:24;102457.41;;;12.82;100.00
47104;BME280;32853;52.164;5.400;2024-01-30T09:52:51;102321.50;;;11.81;100.00
47104;BME280;32853;52.164;5.400;2024-01-30T09:55:28;102292.50;;;11.89;100.00
47104;BME280;32853;52.164;5.400;2024-01-30T09:57:53;102228.03;;;11.39;100.00
47104;BME280;32853;52.164;5.400;2024-01-30T10:00:18;102481.59;;;12.96;100.00
47104;BME280;32853;52.164;5.400;2024-01-30T10:02:44;102388.69;;;12.27;100.00
47104;BME280;32853;52.164;5.400;2024-01-30T10:05:11;102301.28;;;11.88;100.00
47104;BME280;32853;52.164;5.400;2024-01-30T10:07:55;102472.84;;;12.95;100.00
47104;BME280;32853;52.164;5.400;2024-01-30T10:10:22;102468.91;;;12.77;100.00
47104;BME280;32853;52.164;5.400;2024-01-30T10:12:49;102233.78;;;11.56;100.00
47104;BME280;32853;52.164;5.400;2024-01-30T10:15:14;102169.63;;;11.35;100.00
47104;BME280;32853;52.164;5.400;2024-01-30T10:17:40;102492.34;;;12.85;100.00
47104;BME280;32853;52.164;5.400;2024-01-30T10:20:06;102405.47;;;12.59;100.00
47104;BME280;32853;52.164;5.400;2024-01-30T10:22:33;102442.56;;;12.80;100.00
47104;BME280;32853;52.164;5.400;2024-01-30T10:25:00;102355.84;;;12.48;100.00
47104;BME280;32853;52.164;5.400;2024-01-30T10:27:26;102420.31;;;12.95;100.00
47104;BME280;32853;52.164;5.400;2024-01-30T10:29:52;102445.53;;;13.02;100.00
47104;BME280;32853;52.164;5.400;2024-01-30T10:32:28;102408.47;;;12.79;100.00
47104;BME280;32853;52.164;5.400;2024-01-30T10:34:54;102207.81;;;11.45;100.00
47104;BME280;32853;52.164;5.400;2024-01-30T10:37:36;102467.06;;;13.17;100.00
47104;BME280;32853;52.164;5.400;2024-01-30T10:40:03;102336.44;;;12.55;100.00
47104;BME280;32853;52.164;5.400;2024-01-30T10:42:37;102349.44;;;12.60;100.00
47104;BME280;32853;52.164;5.400;2024-01-30T10:45:11;102294.50;;;12.16;100.00
47104;BME280;32853;52.164;5.400;2024-01-30T10:47:50;102284.13;;;12.12;100.00
47104;BME280;32853;52.164;5.400;2024-01-30T10:50:16;102378.28;;;12.61;100.00
47104;BME280;32853;52.164;5.400;2024-01-30T10:52:42;102178.91;;;11.50;100.00
47104;BME280;32853;52.164;5.400;2024-01-30T10:55:10;102485.50;;;13.15;100.00
47104;BME280;32853;52.164;5.400;2024-01-30T10:57:35;102322.28;;;12.25;100.00
47104;BME280;32853;52.164;5.400;2024-01-30T11:00:08;102200.47;;;11.61;100.00
47104;BME280;32853;52.164;5.400;2024-01-30T11:02:43;102337.00;;;12.32;100.00
47104;BME280;32853;52.164;5.400;2024-01-30T11:05:11;102467.78;;;13.25;100.00
47104;BME280;32853;52.164;5.400;2024-01-30T11:07:39;102492.38;;;13.22;100.00
47104;BME280;32853;52.164;5.400;2024-01-30T11:10:12;102490.81;;;13.14;100.00
47104;BME280;32853;52.164;5.400;2024-01-30T11:12:58;102485.47;;;13.17;100.00
47104;BME280;32853;52.164;5.400;2024-01-30T11:15:24;102472.88;;;13.32;100.00
47104;BME280;32853;52.164;5.400;2024-01-30T11:17:52;102516.91;;;13.23;100.00
47104;BME280;32853;52.164;5.400;2024-01-30T11:20:48;102312.50;;;12.32;100.00
47104;BME280;32853;52.164;5.400;2024-01-30T11:23:14;102441.06;;;12.70;100.00
47104;BME280;32853;52.164;5.400;2024-01-30T11:25:39;102496.69;;;13.25;100.00
47104;BME280;32853;52.164;5.400;2024-01-30T11:28:05;102514.56;;;13.07;100.00
47104;BME280;32853;52.164;5.400;2024-01-30T11:30:32;102489.16;;;13.09;100.00
47104;BME280;32853;52.164;5.400;2024-01-30T11:33:09;102212.50;;;11.29;100.00
47104;BME280;32853;52.164;5.400;2024-01-30T11:35:41;102475.72;;;12.85;100.00
47104;BME280;32853;52.164;5.400;2024-01-30T11:38:08;102435.34;;;12.53;100.00
47104;BME280;32853;52.164;5.400;2024-01-30T11:40:38;102509.28;;;13.11;100.00
47104;BME280;32853;52.164;5.400;2024-01-30T11:43:07;102518.41;;;12.94;100.00
47104;BME280;32853;52.164;5.400;2024-01-30T11:45:33;102347.09;;;11.67;100.00
47104;BME280;32853;52.164;5.400;2024-01-30T11:47:59;102472.75;;;12.21;100.00
47104;BME280;32853;52.164;5.400;2024-01-30T11:50:33;102376.00;;;11.64;100.00
47104;BME280;32853;52.164;5.400;2024-01-30T11:52:59;102459.66;;;12.21;100.00
47104;BME280;32853;52.164;5.400;2024-01-30T11:55:25;102476.00;;;12.34;100.00
47104;BME280;32853;52.164;5.400;2024-01-30T11:57:51;102525.50;;;12.49;100.00
47104;BME280;32853;52.164;5.400;2024-01-30T12:00:19;102418.03;;;12.04;100.00
47104;BME280;32853;52.164;5.400;2024-01-30T12:02:54;102385.38;;;11.76;100.00
47104;BME280;32853;52.164;5.400;2024-01-30T12:05:24;102476.06;;;12.29;100.00
47104;BME280;32853;52.164;5.400;2024-01-30T12:07:50;102515.41;;;12.29;100.00
47104;BME280;32853;52.164;5.400;2024-01-30T12:10:16;102368.44;;;11.01;100.00
47104;BME280;32853;52.164;5.400;2024-01-30T12:12:47;102365.44;;;11.22;100.00
47104;BME280;32853;52.164;5.400;2024-01-30T12:15:15;102385.91;;;11.48;100.00
47104;BME280;32853;52.164;5.400;2024-01-30T12:17:41;102361.56;;;11.43;100.00
47104;BME280;32853;52.164;5.400;2024-01-30T12:20:20;102537.81;;;12.47;100.00
47104;BME280;32853;52.164;5.400;2024-01-30T12:22:55;102477.81;;;11.87;100.00
47104;BME280;32853;52.164;5.400;2024-01-30T12:25:20;102539.66;;;11.99;100.00
47104;BME280;32853;52.164;5.400;2024-01-30T12:27:49;102562.16;;;12.10;100.00
47104;BME280;32853;52.164;5.400;2024-01-30T12:30:20;102493.00;;;11.14;100.00
47104;BME280;32853;52.164;5.400;2024-01-30T12:32:48;102342.34;;;9.75;100.00
47104;BME280;32853;52.164;5.400;2024-01-30T12:35:16;102584.84;;;11.59;100.00
47104;BME280;32853;52.164;5.400;2024-01-30T12:37:49;102399.75;;;10.53;100.00
47104;BME280;32853;52.164;5.400;2024-01-30T12:40:15;102297.78;;;9.85;100.00
47104;BME280;32853;52.164;5.400;2024-01-30T12:42:46;102504.81;;;11.40;100.00
47104;BME280;32853;52.164;5.400;2024-01-30T12:45:18;102465.19;;;11.09;100.00
47104;BME280;32853;52.164;5.400;2024-01-30T12:47:49;102554.47;;;11.47;100.00
47104;BME280;32853;52.164;5.400;2024-01-30T12:50:14;102584.09;;;11.51;100.00
47104;BME280;32853;52.164;5.400;2024-01-30T12:52:42;102504.47;;;11.07;100.00